sensor_id;sensor_type;location;lat;lon;timestamp;pressure;altitude;pressure_sealevel;temperature;humidity
49585;BME280;35491;49.142;9.210;2024-02-14T00:01:12;100343.66;;;6.98;64.02
49585;BME280;35491;49.142;9.210;2024-02-14T00:03:12;100350.63;;;6.99;64.07
49585;BME280;35491;49.142;9.210;2024-02-14T00:05:13;100332.03;;;6.99;64.08
49585;BME280;35491;49.142;9.210;2024-02-14T00:07:13;100334.81;;;6.98;64.17
49585;BME280;35491;49.142;9.210;2024-02-14T00:09:15;100334.25;;;7.06;64.07
49585;BME280;35491;49.142;9.210;2024-02-14T00:11:16;100336.63;;;6.97;64.12
49585;BME280;35491;49.142;9.210;2024-02-14T00:13:17;100334.69;;;6.99;64.04
49585;BME280;35491;49.142;9.210;2024-02-14T00:15:20;100338.09;;;7.01;63.94
49585;BME280;35491;49.142;9.210;2024-02-14T00:17:21;100339.16;;;6.99;63.86
49585;BME280;35491;49.142;9.210;2024-02-14T00:19:22;100345.63;;;7.08;63.64
49585;BME280;35491;49.142;9.210;2024-02-14T00:21:23;100339.72;;;6.91;63.83
49585;BME280;35491;49.142;9.210;2024-02-14T00:23:24;100340.47;;;6.93;63.92
49585;BME280;35491;49.142;9.210;2024-02-14T00:25:24;100349.31;;;6.94;63.93
49585;BME280;35491;49.142;9.210;2024-02-14T00:27:25;100342.69;;;6.75;64.38
49585;BME280;35491;49.142;9.210;2024-02-14T00:29:27;100353.25;;;6.88;64.20
49585;BME280;35491;49.142;9.210;2024-02-14T00:31:28;100343.69;;;6.85;64.06
49585;BME280;35491;49.142;9.210;2024-02-14T00:33:28;100346.47;;;6.84;64.23
49585;BME280;35491;49.142;9.210;2024-02-14T00:35:28;100353.34;;;6.86;64.06
49585;BME280;35491;49.142;9.210;2024-02-14T00:37:29;100354.22;;;6.87;64.14
49585;BME280;35491;49.142;9.210;2024-02-14T00:39:29;100356.25;;;6.83;64.10
49585;BME280;35491;49.142;9.210;2024-02-14T00:41:30;100354.50;;;6.71;64.42
49585;BME280;35491;49.142;9.210;2024-02-14T00:43:30;100347.41;;;6.59;64.87
49585;BME280;35491;49.142;9.210;2024-02-14T00:45:31;100351.00;;;6.70;64.63
49585;BME280;35491;49.142;9.210;2024-02-14T00:47:35;100346.47;;;6.84;64.28
49585;BME280;35491;49.142;9.210;2024-02-14T00:49:36;100355.38;;;6.83;64.29
49585;BME280;35491;49.142;9.210;2024-02-14T00:51:37;100353.47;;;6.85;64.19
49585;BME280;35491;49.142;9.210;2024-02-14T00:53:40;100346.00;;;6.90;64.04
49585;BME280;35491;49.142;9.210;2024-02-14T00:55:40;100354.63;;;6.94;63.87
49585;BME280;35491;49.142;9.210;2024-02-14T00:57:41;100350.00;;;6.96;63.81
49585;BME280;35491;49.142;9.210;2024-02-14T00:59:41;100348.97;;;6.98;63.73
49585;BME280;35491;49.142;9.210;2024-02-14T01:01:42;100351.13;;;7.29;62.84
49585;BME280;35491;49.142;9.210;2024-02-14T01:03:42;100339.28;;;7.33;62.63
49585;BME280;35491;49.142;9.210;2024-02-14T01:05:43;100348.84;;;7.47;62.19
49585;BME280;35491;49.142;9.210;2024-02-14T01:07:43;100352.97;;;7.40;62.50
49585;BME280;35491;49.142;9.210;2024-02-14T01:09:44;100349.56;;;7.38;62.61
49585;BME280;35491;49.142;9.210;2024-02-14T01:11:45;100348.81;;;7.24;62.87
49585;BME280;35491;49.142;9.210;2024-02-14T01:13:45;100354.88;;;7.38;62.78
49585;BME280;35491;49.142;9.210;2024-02-14T01:15:46;100350.06;;;7.43;62.45
49585;BME280;35491;49.142;9.210;2024-02-14T01:17:46;100352.22;;;7.38;62.50
49585;BME280;35491;49.142;9.210;2024-02-14T01:19:47;100356.44;;;7.29;62.42
49585;BME280;35491;49.142;9.210;2024-02-14T01:21:49;100356.94;;;7.34;62.37
49585;BME280;35491;49.142;9.210;2024-02-14T01:23:49;100353.81;;;7.40;62.28
49585;BME280;35491;49.142;9.210;2024-02-14T01:25:50;100344.00;;;7.41;62.25
49585;BME280;35491;49.142;9.210;2024-02-14T01:27:50;100340.44;;;7.53;61.87
49585;BME280;35491;49.142;9.210;2024-02-14T01:29:52;100345.50;;;7.45;62.16
49585;BME280;35491;49.142;9.210;2024-02-14T01:31:55;100341.13;;;7.44;62.13
49585;BME280;35491;49.142;9.210;2024-02-14T01:33:56;100351.28;;;7.50;62.18
49585;BME280;35491;49.142;9.210;2024-02-14T01:35:57;100344.44;;;7.59;61.98
49585;BME280;35491;49.142;9.210;2024-02-14T01:37:58;100342.47;;;7.61;61.79
49585;BME280;35491;49.142;9.210;2024-02-14T01:39:58;100342.50;;;7.72;61.50
49585;BME280;35491;49.142;9.210;2024-02-14T01:41:59;100339.94;;;7.59;61.94
49585;BME280;35491;49.142;9.210;2024-02-14T01:43:59;100336.53;;;7.57;61.92
49585;BME280;35491;49.142;9.210;2024-02-14T01:46:05;100330.63;;;7.65;61.51
49585;BME280;35491;49.142;9.210;2024-02-14T01:48:06;100325.22;;;7.78;61.49
49585;BME280;35491;49.142;9.210;2024-02-14T01:50:08;100324.72;;;7.84;61.31
49585;BME280;35491;49.142;9.210;2024-02-14T01:52:11;100325.22;;;7.89;61.22
49585;BME280;35491;49.142;9.210;2024-02-14T01:54:14;100322.56;;;7.89;61.09
49585;BME280;35491;49.142;9.210;2024-02-14T01:56:15;100321.09;;;7.96;60.91
49585;BME280;35491;49.142;9.210;2024-02-14T01:58:16;100316.03;;;7.93;61.01
49585;BME280;35491;49.142;9.210;2024-02-14T02:00:16;100320.38;;;7.94;61.03
49585;BME280;35491;49.142;9.210;2024-02-14T02:02:19;100319.63;;;8.04;60.69
49585;BME280;35491;49.142;9.210;2024-02-14T02:04:19;100321.56;;;8.13;60.47
49585;BME280;35491;49.142;9.210;2024-02-14T02:06:21;100318.22;;;8.11;60.44
49585;BME280;35491;49.142;9.210;2024-02-14T02:08:21;100311.19;;;8.21;60.00
49585;BME280;35491;49.142;9.210;2024-02-14T02:10:22;100306.53;;;8.23;59.98
49585;BME280;35491;49.142;9.210;2024-02-14T02:12:26;100311.41;;;8.18;60.01
49585;BME280;35491;49.142;9.210;2024-02-14T02:14:27;100301.72;;;8.17;59.72
49585;BME280;35491;49.142;9.210;2024-02-14T02:16:28;100307.19;;;8.16;59.65
49585;BME280;35491;49.142;9.210;2024-02-14T02:18:28;100296.97;;;8.32;59.22
49585;BME280;35491;49.142;9.210;2024-02-14T02:20:29;100301.56;;;8.30;59.27
49585;BME280;35491;49.142;9.210;2024-02-14T02:22:29;100305.78;;;8.44;59.08
49585;BME280;35491;49.142;9.210;2024-02-14T02:24:32;100294.19;;;8.34;59.19
49585;BME280;35491;49.142;9.210;2024-02-14T02:26:32;100293.22;;;8.35;58.94
49585;BME280;35491;49.142;9.210;2024-02-14T02:28:33;100285.81;;;8.50;58.70
49585;BME280;35491;49.142;9.210;2024-02-14T02:30:33;100283.50;;;8.56;58.41
49585;BME280;35491;49.142;9.210;2024-02-14T02:32:35;100289.81;;;8.55;58.49
49585;BME280;35491;49.142;9.210;2024-02-14T02:34:36;100284.56;;;8.65;57.52
49585;BME280;35491;49.142;9.210;2024-02-14T02:36:40;100275.09;;;8.72;57.67
49585;BME280;35491;49.142;9.210;2024-02-14T02:38:41;100279.72;;;8.70;57.70
49585;BME280;35491;49.142;9.210;2024-02-14T02:40:41;100276.06;;;8.71;57.66
49585;BME280;35491;49.142;9.210;2024-02-14T02:42:42;100275.41;;;8.79;57.37
49585;BME280;35491;49.142;9.210;2024-02-14T02:44:50;100273.97;;;8.86;56.81
49585;BME280;35491;49.142;9.210;2024-02-14T02:46:50;100270.22;;;8.78;57.18
49585;BME280;35491;49.142;9.210;2024-02-14T02:48:51;100260.44;;;8.99;56.63
49585;BME280;35491;49.142;9.210;2024-02-14T02:50:55;100262.03;;;8.90;56.68
49585;BME280;35491;49.142;9.210;2024-02-14T02:52:55;100256.91;;;8.99;56.45
49585;BME280;35491;49.142;9.210;2024-02-14T02:54:57;100260.28;;;9.01;56.27
49585;BME280;35491;49.142;9.210;2024-02-14T02:56:58;100264.13;;;9.08;56.19
49585;BME280;35491;49.142;9.210;2024-02-14T02:58:59;100261.22;;;9.11;56.11
49585;BME280;35491;49.142;9.210;2024-02-14T03:00:59;100253.97;;;9.23;55.86
49585;BME280;35491;49.142;9.210;2024-02-14T03:03:00;100257.84;;;9.30;55.71
49585;BME280;35491;49.142;9.210;2024-02-14T03:05:01;100254.88;;;9.33;55.48
49585;BME280;35491;49.142;9.210;2024-02-14T03:07:03;100257.84;;;9.30;55.63
49585;BME280;35491;49.142;9.210;2024-02-14T03:09:06;100250.13;;;9.37;55.36
49585;BME280;35491;49.142;9.210;2024-02-14T03:11:07;100258.53;;;9.32;55.45
49585;BME280;35491;49.142;9.210;2024-02-14T03:13:08;100252.09;;;9.14;56.00
49585;BME280;35491;49.142;9.210;2024-02-14T03:15:17;100266.50;;;9.01;56.17
49585;BME280;35491;49.142;9.210;2024-02-14T03:17:18;100269.69;;;8.84;56.61
49585;BME280;35491;49.142;9.210;2024-02-14T03:19:19;100272.81;;;8.68;56.84
49585;BME280;35491;49.142;9.210;2024-02-14T03:21:19;100277.50;;;8.76;56.52
49585;BME280;35491;49.142;9.210;2024-02-14T03:23:20;100276.66;;;8.75;56.57
49585;BME280;35491;49.142;9.210;2024-02-14T03:25:21;100274.13;;;8.73;56.49
49585;BME280;35491;49.142;9.210;2024-02-14T03:27:21;100271.78;;;8.80;56.47
49585;BME280;35491;49.142;9.210;2024-02-14T03:29:23;100283.16;;;8.82;56.38
49585;BME280;35491;49.142;9.210;2024-02-14T03:31:24;100287.16;;;8.55;56.98
49585;BME280;35491;49.142;9.210;2024-02-14T03:33:26;100280.84;;;8.45;57.32
49585;BME280;35491;49.142;9.210;2024-02-14T03:35:26;100289.19;;;8.63;56.82
49585;BME280;35491;49.142;9.210;2024-02-14T03:37:27;100279.41;;;8.52;57.12
49585;BME280;35491;49.142;9.210;2024-02-14T03:39:28;100280.63;;;8.48;57.15
49585;BME280;35491;49.142;9.210;2024-02-14T03:41:29;100272.00;;;8.56;56.96
49585;BME280;35491;49.142;9.210;2024-02-14T03:43:29;100285.44;;;8.54;57.09
49585;BME280;35491;49.142;9.210;2024-02-14T03:45:30;100284.03;;;8.27;57.70
49585;BME280;35491;49.142;9.210;2024-02-14T03:47:32;100288.25;;;8.53;57.12
49585;BME280;35491;49.142;9.210;2024-02-14T03:49:33;100288.25;;;8.30;57.56
49585;BME280;35491;49.142;9.210;2024-02-14T03:51:33;100294.94;;;8.24;57.74
49585;BME280;35491;49.142;9.210;2024-02-14T03:53:34;100293.72;;;8.28;57.76
49585;BME280;35491;49.142;9.210;2024-02-14T03:55:35;100301.13;;;8.25;57.77
49585;BME280;35491;49.142;9.210;2024-02-14T03:57:36;100284.88;;;8.28;57.90
49585;BME280;35491;49.142;9.210;2024-02-14T03:59:39;100289.38;;;8.27;58.13
49585;BME280;35491;49.142;9.210;2024-02-14T04:01:44;100286.22;;;8.22;58.19
49585;BME280;35491;49.142;9.210;2024-02-14T04:03:46;100300.47;;;8.33;58.12
49585;BME280;35491;49.142;9.210;2024-02-14T04:05:47;100289.81;;;8.33;58.08
49585;BME280;35491;49.142;9.210;2024-02-14T04:07:48;100297.59;;;8.24;58.36
49585;BME280;35491;49.142;9.210;2024-02-14T04:09:52;100292.16;;;8.26;58.51
49585;BME280;35491;49.142;9.210;2024-02-14T04:11:52;100296.97;;;8.32;58.42
49585;BME280;35491;49.142;9.210;2024-02-14T04:13:53;100298.69;;;8.33;58.52
49585;BME280;35491;49.142;9.210;2024-02-14T04:15:53;100297.06;;;8.42;58.36
49585;BME280;35491;49.142;9.210;2024-02-14T04:17:54;100297.19;;;8.40;58.39
49585;BME280;35491;49.142;9.210;2024-02-14T04:19:55;100300.47;;;8.33;58.76
49585;BME280;35491;49.142;9.210;2024-02-14T04:21:56;100299.34;;;8.47;58.45
49585;BME280;35491;49.142;9.210;2024-02-14T04:23:57;100299.63;;;8.43;58.71
49585;BME280;35491;49.142;9.210;2024-02-14T04:25:57;100301.19;;;8.46;58.64
49585;BME280;35491;49.142;9.210;2024-02-14T04:27:57;100305.78;;;8.44;58.69
49585;BME280;35491;49.142;9.210;2024-02-14T04:30:00;100305.06;;;8.42;58.91
49585;BME280;35491;49.142;9.210;2024-02-14T04:32:02;100310.53;;;8.52;58.79
49585;BME280;35491;49.142;9.210;2024-02-14T04:34:03;100309.34;;;8.33;59.24
49585;BME280;35491;49.142;9.210;2024-02-14T04:36:03;100303.06;;;8.23;59.67
49585;BME280;35491;49.142;9.210;2024-02-14T04:38:06;100315.28;;;8.14;60.10
49585;BME280;35491;49.142;9.210;2024-02-14T04:40:09;100311.66;;;8.15;59.85
49585;BME280;35491;49.142;9.210;2024-02-14T04:42:10;100308.47;;;8.33;59.76
49585;BME280;35491;49.142;9.210;2024-02-14T04:44:10;100307.78;;;8.31;59.84
49585;BME280;35491;49.142;9.210;2024-02-14T04:46:11;100310.91;;;8.13;60.26
49585;BME280;35491;49.142;9.210;2024-02-14T04:48:11;100309.94;;;8.25;59.97
49585;BME280;35491;49.142;9.210;2024-02-14T04:50:12;100303.41;;;8.18;60.24
49585;BME280;35491;49.142;9.210;2024-02-14T04:52:14;100304.38;;;8.17;60.47
49585;BME280;35491;49.142;9.210;2024-02-14T04:54:26;100305.81;;;8.33;60.36
49585;BME280;35491;49.142;9.210;2024-02-14T04:56:29;100309.69;;;8.40;60.14
49585;BME280;35491;49.142;9.210;2024-02-14T04:58:29;100303.66;;;8.49;59.83
49585;BME280;35491;49.142;9.210;2024-02-14T05:00:30;100303.75;;;8.48;59.90
49585;BME280;35491;49.142;9.210;2024-02-14T05:02:30;100307.63;;;8.43;60.09
49585;BME280;35491;49.142;9.210;2024-02-14T05:04:31;100301.06;;;8.36;60.40
49585;BME280;35491;49.142;9.210;2024-02-14T05:06:32;100305.78;;;8.44;60.09
49585;BME280;35491;49.142;9.210;2024-02-14T05:08:32;100301.94;;;8.25;60.62
49585;BME280;35491;49.142;9.210;2024-02-14T05:10:33;100312.22;;;8.41;60.21
49585;BME280;35491;49.142;9.210;2024-02-14T05:12:33;100312.81;;;8.45;60.22
49585;BME280;35491;49.142;9.210;2024-02-14T05:14:37;100321.28;;;8.50;60.29
49585;BME280;35491;49.142;9.210;2024-02-14T05:16:38;100314.00;;;8.64;59.84
49585;BME280;35491;49.142;9.210;2024-02-14T05:18:38;100312.69;;;8.58;60.02
49585;BME280;35491;49.142;9.210;2024-02-14T05:20:39;100306.31;;;8.49;60.24
49585;BME280;35491;49.142;9.210;2024-02-14T05:22:39;100303.84;;;8.46;60.33
49585;BME280;35491;49.142;9.210;2024-02-14T05:24:39;100313.78;;;8.55;60.35
49585;BME280;35491;49.142;9.210;2024-02-14T05:26:40;100314.00;;;8.64;59.96
49585;BME280;35491;49.142;9.210;2024-02-14T05:28:41;100320.28;;;8.74;59.86
49585;BME280;35491;49.142;9.210;2024-02-14T05:30:42;100306.19;;;8.83;59.66
49585;BME280;35491;49.142;9.210;2024-02-14T05:32:43;100310.34;;;8.76;59.87
49585;BME280;35491;49.142;9.210;2024-02-14T05:34:43;100309.59;;;8.85;59.71
49585;BME280;35491;49.142;9.210;2024-02-14T05:36:44;100303.00;;;8.89;59.64
49585;BME280;35491;49.142;9.210;2024-02-14T05:38:46;100298.16;;;8.95;59.43
49585;BME280;35491;49.142;9.210;2024-02-14T05:40:48;100292.50;;;9.09;59.08
49585;BME280;35491;49.142;9.210;2024-02-14T05:42:49;100284.81;;;9.16;58.68
49585;BME280;35491;49.142;9.210;2024-02-14T05:44:50;100293.81;;;9.15;58.76
49585;BME280;35491;49.142;9.210;2024-02-14T05:46:52;100293.94;;;9.13;58.61
49585;BME280;35491;49.142;9.210;2024-02-14T05:48:52;100294.66;;;9.15;58.56
49585;BME280;35491;49.142;9.210;2024-02-14T05:50:52;100292.19;;;9.24;58.41
49585;BME280;35491;49.142;9.210;2024-02-14T05:52:53;100296.41;;;9.26;58.11
49585;BME280;35491;49.142;9.210;2024-02-14T05:54:53;100294.31;;;9.30;58.19
49585;BME280;35491;49.142;9.210;2024-02-14T05:56:54;100285.91;;;9.56;57.49
49585;BME280;35491;49.142;9.210;2024-02-14T05:58:54;100282.31;;;9.66;57.25
49585;BME280;35491;49.142;9.210;2024-02-14T06:00:55;100282.59;;;9.73;56.95
49585;BME280;35491;49.142;9.210;2024-02-14T06:02:58;100292.13;;;9.66;56.96
49585;BME280;35491;49.142;9.210;2024-02-14T06:04:58;100284.84;;;9.68;56.94
49585;BME280;35491;49.142;9.210;2024-02-14T06:06:59;100285.81;;;9.67;56.77
49585;BME280;35491;49.142;9.210;2024-02-14T06:08:59;100280.84;;;9.52;56.93
49585;BME280;35491;49.142;9.210;2024-02-14T06:10:59;100285.06;;;9.55;56.63
49585;BME280;35491;49.142;9.210;2024-02-14T06:13:00;100286.88;;;9.55;56.63
49585;BME280;35491;49.142;9.210;2024-02-14T06:15:01;100287.34;;;9.60;56.43
49585;BME280;35491;49.142;9.210;2024-02-14T06:17:02;100280.31;;;9.59;55.92
49585;BME280;35491;49.142;9.210;2024-02-14T06:19:04;100285.81;;;9.67;56.21
49585;BME280;35491;49.142;9.210;2024-02-14T06:21:04;100285.25;;;9.63;56.38
49585;BME280;35491;49.142;9.210;2024-02-14T06:23:05;100292.03;;;9.67;56.27
49585;BME280;35491;49.142;9.210;2024-02-14T06:25:07;100291.63;;;9.72;56.19
49585;BME280;35491;49.142;9.210;2024-02-14T06:27:08;100300.69;;;9.60;56.45
49585;BME280;35491;49.142;9.210;2024-02-14T06:29:08;100305.38;;;9.67;56.19
49585;BME280;35491;49.142;9.210;2024-02-14T06:31:09;100311.75;;;9.55;56.58
49585;BME280;35491;49.142;9.210;2024-02-14T06:33:09;100311.97;;;9.73;56.35
49585;BME280;35491;49.142;9.210;2024-02-14T06:35:10;100316.06;;;9.67;56.39
49585;BME280;35491;49.142;9.210;2024-02-14T06:37:10;100307.66;;;9.72;56.46
49585;BME280;35491;49.142;9.210;2024-02-14T06:39:11;100311.47;;;9.79;56.16
49585;BME280;35491;49.142;9.210;2024-02-14T06:41:12;100324.38;;;9.53;56.80
49585;BME280;35491;49.142;9.210;2024-02-14T06:43:13;100315.94;;;9.48;57.22
49585;BME280;35491;49.142;9.210;2024-02-14T06:45:13;100325.75;;;9.47;56.96
49585;BME280;35491;49.142;9.210;2024-02-14T06:47:14;100331.09;;;9.47;57.30
49585;BME280;35491;49.142;9.210;2024-02-14T06:49:16;100326.03;;;9.44;57.33
49585;BME280;35491;49.142;9.210;2024-02-14T06:51:16;100330.91;;;9.39;57.66
49585;BME280;35491;49.142;9.210;2024-02-14T06:53:17;100327.19;;;9.51;57.27
49585;BME280;35491;49.142;9.210;2024-02-14T06:55:17;100326.41;;;9.61;56.94
49585;BME280;35491;49.142;9.210;2024-02-14T06:57:18;100324.97;;;9.57;57.45
49585;BME280;35491;49.142;9.210;2024-02-14T06:59:18;100332.19;;;9.66;56.96
49585;BME280;35491;49.142;9.210;2024-02-14T07:01:19;100336.00;;;9.73;56.95
49585;BME280;35491;49.142;9.210;2024-02-14T07:03:23;100345.72;;;9.74;56.89
49585;BME280;35491;49.142;9.210;2024-02-14T07:05:23;100337.53;;;9.66;57.25
49585;BME280;35491;49.142;9.210;2024-02-14T07:07:24;100343.78;;;9.55;57.38
49585;BME280;35491;49.142;9.210;2024-02-14T07:09:24;100343.03;;;9.74;57.00
49585;BME280;35491;49.142;9.210;2024-02-14T07:11:25;100351.66;;;9.57;57.18
49585;BME280;35491;49.142;9.210;2024-02-14T07:13:25;100356.50;;;9.63;57.14
49585;BME280;35491;49.142;9.210;2024-02-14T07:15:26;100350.63;;;9.69;57.19
49585;BME280;35491;49.142;9.210;2024-02-14T07:17:28;100357.00;;;9.57;57.49
49585;BME280;35491;49.142;9.210;2024-02-14T07:19:29;100353.16;;;9.49;57.52
49585;BME280;35491;49.142;9.210;2024-02-14T07:21:29;100363.97;;;9.48;57.52
49585;BME280;35491;49.142;9.210;2024-02-14T07:23:30;100357.53;;;9.50;57.39
49585;BME280;35491;49.142;9.210;2024-02-14T07:25:30;100359.31;;;9.29;57.75
49585;BME280;35491;49.142;9.210;2024-02-14T07:27:31;100360.25;;;9.39;57.84
49585;BME280;35491;49.142;9.210;2024-02-14T07:29:31;100352.16;;;9.72;56.90
49585;BME280;35491;49.142;9.210;2024-02-14T07:31:32;100355.81;;;9.71;56.94
49585;BME280;35491;49.142;9.210;2024-02-14T07:33:34;100355.31;;;9.77;56.72
49585;BME280;35491;49.142;9.210;2024-02-14T07:35:36;100363.91;;;9.80;56.72
49585;BME280;35491;49.142;9.210;2024-02-14T07:37:37;100369.44;;;9.67;57.08
49585;BME280;35491;49.142;9.210;2024-02-14T07:39:38;100358.56;;;9.80;56.77
49585;BME280;35491;49.142;9.210;2024-02-14T07:41:38;100363.34;;;9.87;56.54
49585;BME280;35491;49.142;9.210;2024-02-14T07:43:39;100372.53;;;9.94;56.45
49585;BME280;35491;49.142;9.210;2024-02-14T07:45:39;100373.91;;;9.88;56.55
49585;BME280;35491;49.142;9.210;2024-02-14T07:47:40;100381.50;;;9.93;56.61
49585;BME280;35491;49.142;9.210;2024-02-14T07:49:41;100385.50;;;9.77;57.25
49585;BME280;35491;49.142;9.210;2024-02-14T07:51:41;100382.22;;;9.95;56.81
49585;BME280;35491;49.142;9.210;2024-02-14T07:53:42;100389.34;;;9.84;57.13
49585;BME280;35491;49.142;9.210;2024-02-14T07:55:42;100389.84;;;9.99;57.08
49585;BME280;35491;49.142;9.210;2024-02-14T07:57:44;100390.16;;;10.06;56.91
49585;BME280;35491;49.142;9.210;2024-02-14T07:59:45;100392.13;;;10.04;56.96
49585;BME280;35491;49.142;9.210;2024-02-14T08:01:45;100391.56;;;9.79;57.56
49585;BME280;35491;49.142;9.210;2024-02-14T08:03:46;100387.25;;;9.88;57.17
49585;BME280;35491;49.142;9.210;2024-02-14T08:05:46;100386.16;;;9.91;57.06
49585;BME280;35491;49.142;9.210;2024-02-14T08:07:47;100381.25;;;9.96;56.90
49585;BME280;35491;49.142;9.210;2024-02-14T08:09:48;100385.44;;;9.89;57.17
49585;BME280;35491;49.142;9.210;2024-02-14T08:11:48;100378.66;;;10.06;56.74
49585;BME280;35491;49.142;9.210;2024-02-14T08:13:52;100373.09;;;9.97;56.73
49585;BME280;35491;49.142;9.210;2024-02-14T08:15:53;100385.03;;;9.93;57.33
49585;BME280;35491;49.142;9.210;2024-02-14T08:17:53;100380.06;;;10.10;56.89
49585;BME280;35491;49.142;9.210;2024-02-14T08:19:57;100380.38;;;10.17;56.89
49585;BME280;35491;49.142;9.210;2024-02-14T08:21:57;100375.63;;;10.30;56.66
49585;BME280;35491;49.142;9.210;2024-02-14T08:24:00;100372.88;;;10.41;56.44
49585;BME280;35491;49.142;9.210;2024-02-14T08:26:01;100376.28;;;10.53;55.82
49585;BME280;35491;49.142;9.210;2024-02-14T08:28:01;100368.81;;;10.47;56.07
49585;BME280;35491;49.142;9.210;2024-02-14T08:30:03;100372.38;;;10.48;55.95
49585;BME280;35491;49.142;9.210;2024-02-14T08:32:06;100377.06;;;10.65;55.53
49585;BME280;35491;49.142;9.210;2024-02-14T08:34:06;100367.91;;;10.77;55.11
49585;BME280;35491;49.142;9.210;2024-02-14T08:36:08;100365.69;;;10.92;54.70
49585;BME280;35491;49.142;9.210;2024-02-14T08:38:09;100370.16;;;10.72;54.94
49585;BME280;35491;49.142;9.210;2024-02-14T08:40:10;100366.81;;;10.90;54.49
49585;BME280;35491;49.142;9.210;2024-02-14T08:42:12;100369.91;;;10.85;54.46
49585;BME280;35491;49.142;9.210;2024-02-14T08:44:13;100375.25;;;10.75;54.63
49585;BME280;35491;49.142;9.210;2024-02-14T08:46:14;100381.00;;;10.81;54.60
49585;BME280;35491;49.142;9.210;2024-02-14T08:48:14;100373.81;;;10.71;54.47
49585;BME280;35491;49.142;9.210;2024-02-14T08:50:15;100368.34;;;10.83;54.33
49585;BME280;35491;49.142;9.210;2024-02-14T08:52:16;100380.03;;;10.82;54.28
49585;BME280;35491;49.142;9.210;2024-02-14T08:54:17;100375.13;;;11.06;53.62
49585;BME280;35491;49.142;9.210;2024-02-14T08:56:17;100384.56;;;11.11;53.48
49585;BME280;35491;49.142;9.210;2024-02-14T08:58:17;100380.34;;;11.18;53.32
49585;BME280;35491;49.142;9.210;2024-02-14T09:00:19;100381.06;;;11.20;53.23
49585;BME280;35491;49.142;9.210;2024-02-14T09:02:19;100387.94;;;11.22;53.14
49585;BME280;35491;49.142;9.210;2024-02-14T09:04:20;100380.78;;;11.23;53.27
49585;BME280;35491;49.142;9.210;2024-02-14T09:06:21;100381.91;;;11.30;53.27
49585;BME280;35491;49.142;9.210;2024-02-14T09:08:22;100396.66;;;11.34;53.15
49585;BME280;35491;49.142;9.210;2024-02-14T09:10:22;100399.78;;;11.20;53.40
49585;BME280;35491;49.142;9.210;2024-02-14T09:12:23;100395.84;;;11.24;53.48
49585;BME280;35491;49.142;9.210;2024-02-14T09:14:23;100395.28;;;11.11;53.57
49585;BME280;35491;49.142;9.210;2024-02-14T09:16:24;100391.88;;;11.08;53.81
49585;BME280;35491;49.142;9.210;2024-02-14T09:18:24;100393.28;;;11.03;54.12
49585;BME280;35491;49.142;9.210;2024-02-14T09:20:25;100389.06;;;11.20;53.38
49585;BME280;35491;49.142;9.210;2024-02-14T09:22:26;100391.19;;;11.16;53.80
49585;BME280;35491;49.142;9.210;2024-02-14T09:24:26;100388.22;;;11.29;53.38
49585;BME280;35491;49.142;9.210;2024-02-14T09:26:26;100385.69;;;11.37;53.47
49585;BME280;35491;49.142;9.210;2024-02-14T09:28:27;100392.16;;;11.25;53.97
49585;BME280;35491;49.142;9.210;2024-02-14T09:30:27;100392.03;;;11.27;54.09
49585;BME280;35491;49.142;9.210;2024-02-14T09:32:28;100377.09;;;11.53;53.28
49585;BME280;35491;49.142;9.210;2024-02-14T09:34:29;100376.66;;;11.58;53.36
49585;BME280;35491;49.142;9.210;2024-02-14T09:36:29;100384.28;;;11.43;53.57
49585;BME280;35491;49.142;9.210;2024-02-14T09:38:30;100380.91;;;11.51;53.57
49585;BME280;35491;49.142;9.210;2024-02-14T09:40:31;100379.75;;;11.63;53.25
49585;BME280;35491;49.142;9.210;2024-02-14T09:42:44;100384.38;;;11.71;52.72
49585;BME280;35491;49.142;9.210;2024-02-14T09:44:52;100380.84;;;11.90;52.79
49585;BME280;35491;49.142;9.210;2024-02-14T09:46:53;100383.94;;;11.76;53.29
49585;BME280;35491;49.142;9.210;2024-02-14T09:48:53;100378.00;;;11.92;52.86
49585;BME280;35491;49.142;9.210;2024-02-14T09:50:56;100377.97;;;12.01;52.61
49585;BME280;35491;49.142;9.210;2024-02-14T09:52:57;100375.84;;;12.05;52.65
49585;BME280;35491;49.142;9.210;2024-02-14T09:54:59;100368.41;;;11.89;52.87
49585;BME280;35491;49.142;9.210;2024-02-14T09:56:59;100369.38;;;12.08;52.79
49585;BME280;35491;49.142;9.210;2024-02-14T09:59:01;100372.16;;;12.16;52.44
49585;BME280;35491;49.142;9.210;2024-02-14T10:01:02;100368.19;;;12.20;52.42
49585;BME280;35491;49.142;9.210;2024-02-14T10:03:04;100370.28;;;12.26;52.18
49585;BME280;35491;49.142;9.210;2024-02-14T10:05:04;100375.94;;;12.23;52.23
49585;BME280;35491;49.142;9.210;2024-02-14T10:07:05;100374.16;;;12.42;51.83
49585;BME280;35491;49.142;9.210;2024-02-14T10:09:05;100383.34;;;12.39;51.92
49585;BME280;35491;49.142;9.210;2024-02-14T10:11:05;100375.88;;;12.33;51.95
49585;BME280;35491;49.142;9.210;2024-02-14T10:13:07;100374.16;;;12.42;51.93
49585;BME280;35491;49.142;9.210;2024-02-14T10:15:08;100380.59;;;12.49;51.69
49585;BME280;35491;49.142;9.210;2024-02-14T10:17:08;100378.13;;;12.66;50.92
49585;BME280;35491;49.142;9.210;2024-02-14T10:19:17;100376.53;;;12.73;50.93
49585;BME280;35491;49.142;9.210;2024-02-14T10:21:18;100370.84;;;12.76;51.12
49585;BME280;35491;49.142;9.210;2024-02-14T10:23:19;100366.19;;;12.78;51.33
49585;BME280;35491;49.142;9.210;2024-02-14T10:25:20;100363.50;;;12.78;51.42
49585;BME280;35491;49.142;9.210;2024-02-14T10:27:22;100366.50;;;12.75;51.44
49585;BME280;35491;49.142;9.210;2024-02-14T10:29:23;100380.66;;;12.85;51.22
49585;BME280;35491;49.142;9.210;2024-02-14T10:31:25;100366.22;;;12.96;51.02
49585;BME280;35491;49.142;9.210;2024-02-14T10:33:28;100373.25;;;12.79;51.45
49585;BME280;35491;49.142;9.210;2024-02-14T10:35:33;100374.41;;;12.94;51.36
49585;BME280;35491;49.142;9.210;2024-02-14T10:37:37;100374.88;;;13.08;50.88
49585;BME280;35491;49.142;9.210;2024-02-14T10:39:38;100380.72;;;13.21;50.59